createdAt,value
2017-12-19T00:01:46.183Z,19.01
2017-12-19T00:04:13.281Z,18.97
2017-12-19T00:06:39.601Z,18.93
2017-12-19T00:09:05.819Z,18.96
2017-12-19T00:11:32.124Z,19.01
2017-12-19T00:14:00.593Z,19.05
2017-12-19T00:16:34.008Z,19.08
2017-12-19T00:19:04.335Z,19.09
2017-12-19T00:21:32.638Z,19.10
2017-12-19T00:24:00.945Z,19.11
2017-12-19T00:26:29.262Z,19.08
2017-12-19T00:29:01.181Z,19.10
2017-12-19T00:31:29.214Z,19.09
2017-12-19T00:34:02.798Z,19.07
2017-12-19T00:36:34.339Z,19.07
2017-12-19T00:39:03.465Z,19.07
2017-12-19T00:41:32.653Z,19.08
2017-12-19T00:44:04.135Z,19.08
2017-12-19T00:46:31.132Z,19.04
2017-12-19T00:48:59.194Z,19.04
2017-12-19T00:51:26.941Z,19.03
2017-12-19T00:53:53.476Z,19.02
2017-12-19T00:56:19.854Z,19.04
2017-12-19T00:58:46.131Z,19.04
2017-12-19T01:01:12.316Z,19.04
2017-12-19T01:03:38.856Z,19.00
2017-12-19T01:06:05.052Z,19.01
2017-12-19T01:08:31.236Z,19.01
2017-12-19T01:10:57.499Z,19.01
2017-12-19T01:13:24.009Z,19.02
2017-12-19T01:15:50.200Z,19.02
2017-12-19T01:18:16.438Z,19.02
2017-12-19T01:20:42.633Z,19.00
2017-12-19T01:23:08.832Z,19.01
2017-12-19T01:25:35.084Z,19.02
2017-12-19T01:28:01.278Z,19.00
2017-12-19T01:30:27.700Z,19.02
2017-12-19T01:32:53.931Z,18.97
2017-12-19T01:35:20.116Z,18.97
2017-12-19T01:37:46.307Z,18.99
2017-12-19T01:40:12.536Z,18.94
2017-12-19T01:42:38.726Z,18.98
2017-12-19T01:45:04.914Z,18.99
2017-12-19T01:47:31.453Z,19.01
2017-12-19T01:49:57.656Z,18.99
2017-12-19T01:52:23.851Z,19.02
2017-12-19T01:54:50.459Z,19.02
2017-12-19T01:57:16.716Z,19.02
2017-12-19T01:59:43.028Z,19.02
2017-12-19T02:02:09.246Z,19.02
2017-12-19T02:04:35.497Z,19.05
2017-12-19T02:07:01.677Z,19.05
2017-12-19T02:09:27.870Z,19.04
2017-12-19T02:11:54.102Z,19.02
2017-12-19T02:14:20.284Z,19.04
2017-12-19T02:16:46.477Z,19.04
2017-12-19T02:19:12.746Z,19.04
2017-12-19T02:21:38.952Z,19.04
2017-12-19T02:24:05.170Z,19.05
2017-12-19T02:26:31.527Z,19.05
2017-12-19T02:28:57.959Z,19.05
2017-12-19T02:31:24.400Z,19.07
2017-12-19T02:33:50.667Z,19.06
2017-12-19T02:36:16.889Z,19.04
2017-12-19T02:38:43.093Z,19.06
2017-12-19T02:41:09.398Z,19.03
2017-12-19T02:43:35.853Z,19.03
2017-12-19T02:46:02.096Z,19.03
2017-12-19T02:48:28.344Z,19.03
2017-12-19T02:50:54.576Z,19.00
2017-12-19T02:53:20.792Z,19.02
2017-12-19T02:55:47.306Z,19.03
2017-12-19T02:58:13.488Z,19.03
2017-12-19T03:00:40.768Z,19.05
2017-12-19T03:03:07.412Z,19.07
2017-12-19T03:05:33.661Z,19.05
2017-12-19T03:07:59.847Z,19.06
2017-12-19T03:10:26.171Z,19.08
2017-12-19T03:12:52.694Z,19.08
2017-12-19T03:15:18.923Z,19.08
2017-12-19T03:17:45.611Z,19.10
2017-12-19T03:20:11.884Z,19.10
2017-12-19T03:22:38.279Z,19.09
2017-12-19T03:25:04.652Z,19.07
2017-12-19T03:27:30.911Z,19.05
2017-12-19T03:29:57.116Z,19.07
2017-12-19T03:32:26.300Z,19.07
2017-12-19T03:35:02.313Z,19.09
2017-12-19T03:37:30.088Z,19.07
2017-12-19T03:39:56.922Z,19.06
2017-12-19T03:42:26.644Z,19.05
2017-12-19T03:44:53.429Z,19.07
2017-12-19T03:47:20.360Z,19.09
2017-12-19T03:49:48.063Z,19.08
2017-12-19T03:52:15.368Z,19.09
2017-12-19T03:54:43.390Z,19.09
2017-12-19T03:57:09.799Z,19.09
2017-12-19T03:59:36.960Z,19.09
2017-12-19T04:02:03.368Z,19.08
2017-12-19T04:04:30.065Z,19.09
2017-12-19T04:06:56.649Z,19.09
2017-12-19T04:09:23.729Z,19.06
2017-12-19T04:11:50.661Z,19.04
2017-12-19T04:14:17.126Z,19.06
2017-12-19T04:16:43.542Z,19.06
2017-12-19T04:19:10.833Z,19.07
2017-12-19T04:21:37.626Z,19.10
2017-12-19T04:24:03.871Z,19.09
2017-12-19T04:26:30.312Z,19.09
2017-12-19T04:28:56.940Z,19.10
2017-12-19T04:31:23.384Z,19.10
2017-12-19T04:33:49.597Z,19.09
2017-12-19T04:36:16.222Z,19.08
2017-12-19T04:38:42.426Z,19.09
2017-12-19T04:41:08.625Z,19.08
2017-12-19T04:43:34.855Z,19.07
2017-12-19T04:46:01.064Z,19.09
2017-12-19T04:48:27.276Z,19.10
2017-12-19T04:50:53.549Z,19.09
2017-12-19T04:53:19.740Z,19.09
2017-12-19T04:55:46.172Z,19.07
2017-12-19T04:58:12.509Z,19.09
2017-12-19T05:00:38.708Z,19.11
2017-12-19T05:03:04.899Z,19.08
2017-12-19T05:05:31.161Z,19.05
2017-12-19T05:07:57.340Z,19.08
2017-12-19T05:10:23.552Z,19.12
2017-12-19T05:12:49.815Z,19.14
2017-12-19T05:15:16.042Z,19.14
2017-12-19T05:17:42.236Z,19.14
2017-12-19T05:20:08.485Z,19.13
2017-12-19T05:22:34.671Z,19.11
2017-12-19T05:25:00.908Z,19.14
2017-12-19T05:27:27.244Z,19.15
2017-12-19T05:29:53.721Z,19.16
2017-12-19T05:32:21.833Z,19.18
2017-12-19T05:34:48.250Z,19.20
2017-12-19T05:37:14.498Z,19.20
2017-12-19T05:39:40.924Z,19.26
2017-12-19T05:42:07.274Z,19.24
2017-12-19T05:44:33.564Z,19.24
2017-12-19T05:46:59.780Z,19.22
2017-12-19T05:49:26.051Z,19.18
2017-12-19T05:51:52.283Z,19.23
2017-12-19T05:54:18.650Z,19.21
2017-12-19T05:56:44.912Z,19.18
2017-12-19T05:59:11.168Z,19.17
2017-12-19T06:01:37.382Z,19.17
2017-12-19T06:04:03.988Z,19.17
2017-12-19T06:06:30.187Z,19.18
2017-12-19T06:08:56.377Z,19.18
2017-12-19T06:11:22.639Z,19.20
2017-12-19T06:13:48.824Z,19.18
2017-12-19T06:16:15.008Z,19.17
2017-12-19T06:18:41.269Z,19.18
2017-12-19T06:21:07.509Z,19.15
2017-12-19T06:23:33.721Z,19.15
2017-12-19T06:25:59.971Z,19.13
2017-12-19T06:28:26.421Z,19.14
2017-12-19T06:30:52.880Z,19.12
2017-12-19T06:33:19.140Z,19.12
2017-12-19T06:35:45.352Z,19.13
2017-12-19T06:38:11.649Z,19.11
2017-12-19T06:40:37.905Z,19.12
2017-12-19T06:43:04.098Z,19.13
2017-12-19T06:45:30.627Z,19.12
2017-12-19T06:47:56.877Z,19.13
2017-12-19T06:50:23.067Z,19.11
2017-12-19T06:52:49.271Z,19.10
2017-12-19T06:55:15.756Z,19.12
2017-12-19T06:57:41.978Z,19.17
2017-12-19T07:00:08.251Z,19.18
2017-12-19T07:02:34.544Z,19.23
2017-12-19T07:05:00.782Z,19.25
2017-12-19T07:07:26.979Z,19.24
2017-12-19T07:09:53.512Z,19.22
2017-12-19T07:12:20.012Z,19.22
2017-12-19T07:14:46.282Z,19.24
2017-12-19T07:17:12.546Z,19.27
2017-12-19T07:19:38.773Z,19.25
2017-12-19T07:22:05.210Z,19.24
2017-12-19T07:24:31.479Z,19.22
2017-12-19T07:26:59.308Z,19.22
2017-12-19T07:29:25.560Z,19.21
2017-12-19T07:31:51.819Z,19.20
2017-12-19T07:34:18.118Z,19.20
2017-12-19T07:36:44.375Z,19.19
2017-12-19T07:39:10.957Z,19.18
2017-12-19T07:41:37.151Z,19.18
2017-12-19T07:44:03.654Z,19.17
2017-12-19T07:46:30.251Z,19.19
2017-12-19T07:48:56.468Z,19.18
2017-12-19T07:51:22.673Z,19.18
2017-12-19T07:53:49.018Z,19.16
2017-12-19T07:56:15.246Z,19.16
2017-12-19T07:58:41.703Z,19.17
2017-12-19T08:01:08.132Z,19.17
2017-12-19T08:03:34.321Z,19.19
2017-12-19T08:06:00.520Z,19.20
2017-12-19T08:08:26.816Z,19.18
2017-12-19T08:10:53.040Z,19.18
2017-12-19T08:13:19.238Z,19.21
2017-12-19T08:15:45.492Z,19.22
2017-12-19T08:18:11.676Z,19.28
2017-12-19T08:20:37.873Z,19.30
2017-12-19T08:23:04.113Z,19.29
2017-12-19T08:25:30.315Z,19.30
2017-12-19T08:27:56.565Z,19.31
2017-12-19T08:30:22.807Z,19.30
2017-12-19T08:32:49.013Z,19.32
2017-12-19T08:35:15.231Z,19.34
2017-12-19T08:37:41.765Z,19.33
2017-12-19T08:40:07.997Z,19.32
2017-12-19T08:42:34.194Z,19.32
2017-12-19T08:45:00.758Z,19.31
2017-12-19T08:47:26.969Z,19.34
2017-12-19T08:49:53.152Z,19.34
2017-12-19T08:52:20.364Z,19.33
2017-12-19T08:54:46.536Z,19.32
2017-12-19T08:57:12.745Z,19.30
2017-12-19T08:59:38.982Z,19.28
2017-12-19T09:02:05.211Z,19.30
2017-12-19T09:04:31.445Z,19.29
2017-12-19T09:06:58.388Z,19.29
2017-12-19T09:09:24.574Z,19.32
2017-12-19T09:11:50.747Z,19.34
2017-12-19T09:14:17.003Z,19.36
2017-12-19T09:16:43.192Z,19.39
2017-12-19T09:19:09.387Z,19.39
2017-12-19T09:21:35.649Z,19.42
2017-12-19T09:24:01.840Z,19.42
2017-12-19T09:26:28.034Z,19.42
2017-12-19T09:28:54.302Z,19.46
2017-12-19T09:31:20.547Z,19.45
2017-12-19T09:33:46.737Z,19.46
2017-12-19T09:36:13.458Z,19.45
2017-12-19T09:38:39.638Z,19.45
2017-12-19T09:41:05.832Z,19.43
2017-12-19T09:43:32.096Z,19.42
2017-12-19T09:45:58.297Z,19.40
2017-12-19T09:48:24.500Z,19.41
2017-12-19T09:50:51.146Z,19.44
2017-12-19T09:53:17.352Z,19.44
2017-12-19T09:55:43.561Z,19.45
2017-12-19T09:58:09.832Z,19.48
2017-12-19T10:00:36.045Z,19.50
2017-12-19T10:03:02.292Z,19.52
2017-12-19T10:05:28.556Z,19.53
2017-12-19T10:07:54.750Z,19.57
2017-12-19T10:10:20.947Z,19.58
2017-12-19T10:12:47.465Z,19.59
2017-12-19T10:15:13.652Z,19.64
2017-12-19T10:17:39.895Z,19.64
2017-12-19T10:20:06.174Z,19.64
2017-12-19T10:22:32.360Z,19.66
2017-12-19T10:24:58.584Z,19.63
2017-12-19T10:27:25.161Z,19.65
2017-12-19T10:29:51.349Z,19.64
2017-12-19T10:32:17.797Z,19.63
2017-12-19T10:34:44.298Z,19.64
2017-12-19T10:37:10.612Z,19.59
2017-12-19T10:39:36.848Z,19.60
2017-12-19T10:42:03.046Z,19.62
2017-12-19T10:44:29.293Z,19.61
2017-12-19T10:46:55.498Z,19.61
2017-12-19T10:49:21.684Z,19.62
2017-12-19T10:51:47.927Z,19.60
2017-12-19T10:54:14.421Z,19.64
2017-12-19T10:56:40.613Z,19.65
2017-12-19T10:59:06.800Z,19.61
2017-12-19T11:01:33.123Z,19.55
2017-12-19T11:03:59.305Z,19.53
2017-12-19T11:06:25.525Z,19.54
2017-12-19T11:08:51.777Z,19.59
2017-12-19T11:11:17.966Z,19.58
2017-12-19T11:13:44.396Z,19.60
2017-12-19T11:16:10.616Z,19.61
2017-12-19T11:18:36.796Z,19.63
2017-12-19T11:21:03.051Z,19.63
2017-12-19T11:23:29.419Z,19.67
2017-12-19T11:25:55.900Z,19.73
2017-12-19T11:28:22.481Z,19.76
2017-12-19T11:30:48.751Z,19.75
2017-12-19T11:33:15.080Z,19.74
2017-12-19T11:35:41.459Z,19.75
2017-12-19T11:38:07.735Z,19.78
2017-12-19T11:40:33.969Z,19.81
2017-12-19T11:43:00.465Z,19.82
2017-12-19T11:45:26.666Z,19.83
2017-12-19T11:47:53.130Z,19.82
2017-12-19T11:50:19.381Z,19.82
2017-12-19T11:52:45.580Z,19.82
2017-12-19T11:55:11.845Z,19.81
2017-12-19T11:57:38.324Z,19.83
2017-12-19T12:00:04.525Z,19.84
2017-12-19T12:02:31.023Z,19.82
2017-12-19T12:04:57.220Z,19.81
2017-12-19T12:07:25.467Z,19.83
2017-12-19T12:09:52.738Z,19.82
2017-12-19T12:12:18.957Z,19.83
2017-12-19T12:14:45.379Z,19.83
2017-12-19T12:17:12.228Z,19.86
2017-12-19T12:19:38.439Z,19.91
2017-12-19T12:22:04.624Z,19.94
2017-12-19T12:24:30.828Z,19.98
2017-12-19T12:26:57.066Z,19.97
2017-12-19T12:29:23.246Z,19.96
2017-12-19T12:31:49.443Z,19.96
2017-12-19T12:34:15.918Z,19.95
2017-12-19T12:36:42.110Z,19.91
2017-12-19T12:39:08.282Z,19.90
2017-12-19T12:41:34.520Z,19.87
2017-12-19T12:44:00.690Z,19.86
2017-12-19T12:46:26.863Z,19.83
2017-12-19T12:48:53.107Z,19.81
2017-12-19T12:51:19.304Z,19.80
2017-12-19T12:53:45.733Z,19.80
2017-12-19T12:56:11.949Z,19.81
2017-12-19T12:58:38.159Z,19.81
2017-12-19T13:01:04.439Z,19.80
2017-12-19T13:03:30.641Z,19.79
2017-12-19T13:05:57.093Z,19.80
2017-12-19T13:08:23.351Z,19.81
2017-12-19T13:10:49.571Z,19.82
2017-12-19T13:13:15.746Z,19.83
2017-12-19T13:15:42.236Z,19.85
2017-12-19T13:18:08.410Z,19.89
2017-12-19T13:20:34.590Z,19.92
2017-12-19T13:23:01.150Z,19.89
2017-12-19T13:25:27.311Z,19.90
2017-12-19T13:27:53.556Z,19.98
2017-12-19T13:30:19.811Z,20.04
2017-12-19T13:32:45.997Z,20.05
2017-12-19T13:35:12.211Z,20.05
2017-12-19T13:37:38.453Z,20.03
2017-12-19T13:40:04.924Z,20.02
2017-12-19T13:42:31.131Z,20.01
2017-12-19T13:44:57.689Z,20.02
2017-12-19T13:47:23.880Z,20.03
2017-12-19T13:49:50.060Z,20.05
2017-12-19T13:52:16.610Z,20.07
2017-12-19T13:54:42.796Z,20.09
2017-12-19T13:57:08.982Z,20.12
2017-12-19T13:59:35.292Z,20.15
2017-12-19T14:02:01.467Z,20.17
2017-12-19T14:04:28.010Z,20.17
2017-12-19T14:06:54.270Z,20.17
2017-12-19T14:09:20.809Z,20.16
2017-12-19T14:11:47.000Z,20.16
2017-12-19T14:14:13.193Z,20.15
2017-12-19T14:16:39.448Z,20.14
2017-12-19T14:19:06.009Z,20.12
2017-12-19T14:21:32.547Z,20.09
2017-12-19T14:23:58.736Z,20.09
2017-12-19T14:26:25.200Z,20.07
2017-12-19T14:28:51.400Z,20.05
2017-12-19T14:31:17.659Z,20.05
2017-12-19T14:33:44.247Z,20.04
2017-12-19T14:36:10.442Z,20.03
2017-12-19T14:38:36.635Z,20.02
2017-12-19T14:41:02.885Z,20.01
2017-12-19T14:43:29.069Z,20.02
2017-12-19T14:45:55.252Z,20.03
2017-12-19T14:48:21.786Z,20.05
2017-12-19T14:50:48.055Z,20.05
2017-12-19T14:53:14.267Z,20.04
2017-12-19T14:55:40.483Z,20.02
2017-12-19T14:58:06.662Z,20.01
2017-12-19T15:00:32.907Z,20.00
2017-12-19T15:02:59.086Z,20.00
2017-12-19T15:05:25.554Z,19.98
2017-12-19T15:07:51.905Z,19.98
2017-12-19T15:10:18.131Z,19.97
2017-12-19T15:12:44.340Z,19.96
2017-12-19T15:15:10.859Z,19.94
2017-12-19T15:17:37.304Z,19.93
2017-12-19T15:20:03.509Z,19.93
2017-12-19T15:22:30.085Z,19.94
2017-12-19T15:24:56.317Z,19.93
2017-12-19T15:27:22.523Z,19.94
2017-12-19T15:29:48.827Z,19.94
2017-12-19T15:32:15.067Z,19.93
2017-12-19T15:34:41.381Z,19.93
2017-12-19T15:37:07.648Z,19.93
2017-12-19T15:39:33.862Z,19.93
2017-12-19T15:42:00.425Z,19.93
2017-12-19T15:44:26.976Z,19.93
2017-12-19T15:46:53.204Z,19.94
2017-12-19T15:49:19.416Z,19.94
2017-12-19T15:51:46.084Z,19.95
2017-12-19T15:54:12.327Z,19.94
2017-12-19T15:56:38.542Z,19.92
2017-12-19T15:59:04.818Z,19.93
2017-12-19T16:01:31.049Z,19.94
2017-12-19T16:03:57.247Z,19.94
2017-12-19T16:06:23.880Z,19.93
2017-12-19T16:08:50.469Z,19.94
2017-12-19T16:11:16.652Z,19.94
2017-12-19T16:13:43.233Z,19.95
2017-12-19T16:16:09.403Z,19.96
2017-12-19T16:18:35.589Z,19.95
2017-12-19T16:21:02.122Z,19.95
2017-12-19T16:23:28.288Z,19.94
2017-12-19T16:25:54.785Z,19.95
2017-12-19T16:28:21.360Z,19.94
2017-12-19T16:30:47.540Z,19.94
2017-12-19T16:33:13.978Z,19.93
2017-12-19T16:35:40.215Z,19.95
2017-12-19T16:38:06.410Z,19.95
2017-12-19T16:40:32.595Z,19.95
2017-12-19T16:42:58.877Z,19.95
2017-12-19T16:45:25.069Z,19.95
2017-12-19T16:47:51.265Z,19.96
2017-12-19T16:50:17.487Z,19.95
2017-12-19T16:52:43.664Z,19.95
2017-12-19T16:55:09.837Z,19.94
2017-12-19T16:57:36.406Z,19.95
2017-12-19T17:00:02.668Z,19.94
2017-12-19T17:02:28.853Z,19.92
2017-12-19T17:04:55.117Z,19.93
2017-12-19T17:07:21.345Z,19.91
2017-12-19T17:09:47.913Z,19.96
2017-12-19T17:12:14.169Z,19.95
2017-12-19T17:14:40.682Z,19.97
2017-12-19T17:17:06.866Z,19.99
2017-12-19T17:19:33.318Z,19.98
2017-12-19T17:21:59.874Z,19.96
2017-12-19T17:24:26.307Z,19.96
2017-12-19T17:26:52.498Z,19.97
2017-12-19T17:29:18.751Z,19.98
2017-12-19T17:31:45.079Z,19.95
2017-12-19T17:34:11.531Z,19.93
2017-12-19T17:36:37.801Z,19.93
2017-12-19T17:39:04.393Z,19.93
2017-12-19T17:41:30.571Z,19.93
2017-12-19T17:43:56.822Z,19.95
2017-12-19T17:46:23.032Z,19.96
2017-12-19T17:48:49.920Z,19.96
2017-12-19T17:51:16.211Z,19.98
2017-12-19T17:53:42.417Z,19.99
2017-12-19T17:56:08.694Z,20.01
2017-12-19T17:58:34.963Z,20.01
2017-12-19T18:01:01.173Z,19.98
2017-12-19T18:03:27.713Z,19.94
2017-12-19T18:05:53.905Z,19.98
2017-12-19T18:08:20.359Z,19.99
2017-12-19T18:10:46.592Z,20.00
2017-12-19T18:13:12.774Z,20.01
2017-12-19T18:15:38.962Z,20.01
2017-12-19T18:18:05.497Z,19.99
2017-12-19T18:20:31.928Z,19.98
2017-12-19T18:22:58.345Z,19.97
2017-12-19T18:25:24.600Z,19.97
2017-12-19T18:27:50.818Z,19.96
2017-12-19T18:30:17.093Z,19.98
2017-12-19T18:32:43.325Z,20.03
2017-12-19T18:35:09.510Z,20.08
2017-12-19T18:37:35.709Z,20.10
2017-12-19T18:40:01.947Z,20.09
2017-12-19T18:42:28.142Z,20.10
2017-12-19T18:44:54.422Z,20.11
2017-12-19T18:47:20.669Z,20.10
2017-12-19T18:49:46.853Z,20.10
2017-12-19T18:52:13.073Z,20.09
2017-12-19T18:54:39.668Z,20.09
2017-12-19T18:57:05.842Z,20.12
2017-12-19T18:59:38.181Z,20.12
2017-12-19T19:02:04.404Z,20.11
2017-12-19T19:04:30.574Z,20.10
2017-12-19T19:06:56.776Z,20.09
2017-12-19T19:09:23.025Z,20.08
2017-12-19T19:11:49.300Z,20.09
2017-12-19T19:14:15.488Z,20.09
2017-12-19T19:16:42.052Z,20.10
2017-12-19T19:19:08.228Z,20.09
2017-12-19T19:21:34.409Z,20.09
2017-12-19T19:24:00.646Z,20.09
2017-12-19T19:26:26.837Z,20.10
2017-12-19T19:28:53.025Z,20.08
2017-12-19T19:31:19.243Z,20.07
2017-12-19T19:33:45.508Z,20.06
2017-12-19T19:36:11.752Z,20.06
2017-12-19T19:38:38.033Z,20.06
2017-12-19T19:41:04.210Z,20.07
2017-12-19T19:43:30.628Z,20.04
2017-12-19T19:45:56.845Z,20.03
2017-12-19T19:48:23.026Z,20.03
2017-12-19T19:50:49.215Z,20.04
2017-12-19T19:53:15.783Z,20.04
2017-12-19T19:55:41.977Z,20.04
2017-12-19T19:58:08.204Z,20.02
2017-12-19T20:00:34.432Z,20.05
2017-12-19T20:03:00.621Z,20.05
2017-12-19T20:05:26.830Z,20.05
2017-12-19T20:07:53.460Z,20.06
2017-12-19T20:10:19.662Z,20.05
2017-12-19T20:12:45.961Z,20.05
2017-12-19T20:15:12.205Z,20.04
2017-12-19T20:17:38.379Z,20.03
2017-12-19T20:20:04.565Z,20.03
2017-12-19T20:22:30.812Z,20.01
2017-12-19T20:24:56.982Z,20.03
2017-12-19T20:27:23.173Z,20.02
2017-12-19T20:29:49.675Z,20.02
2017-12-19T20:32:15.854Z,20.02
2017-12-19T20:34:42.032Z,20.01
2017-12-19T20:37:08.608Z,20.03
2017-12-19T20:39:34.784Z,20.04
2017-12-19T20:42:00.955Z,20.04
2017-12-19T20:44:27.205Z,20.05
2017-12-19T20:46:53.393Z,20.03
2017-12-19T20:49:19.568Z,20.02
2017-12-19T20:51:45.808Z,20.02
2017-12-19T20:54:11.983Z,20.02
2017-12-19T20:56:38.202Z,20.04
2017-12-19T20:59:04.774Z,20.04
2017-12-19T21:01:30.965Z,20.03
2017-12-19T21:03:57.142Z,20.02
2017-12-19T21:06:23.756Z,20.01
2017-12-19T21:08:49.943Z,20.02
2017-12-19T21:11:16.136Z,20.04
2017-12-19T21:13:42.851Z,20.03
2017-12-19T21:16:09.007Z,20.02
2017-12-19T21:18:35.478Z,20.01
2017-12-19T21:21:02.053Z,20.00
2017-12-19T21:23:28.259Z,19.99
2017-12-19T21:25:54.769Z,19.99
2017-12-19T21:28:21.003Z,20.01
2017-12-19T21:30:47.188Z,20.03
2017-12-19T21:33:13.372Z,20.08
2017-12-19T21:35:39.824Z,20.06
2017-12-19T21:38:06.232Z,20.06
2017-12-19T21:40:32.426Z,20.04
2017-12-19T21:42:58.650Z,20.02
2017-12-19T21:45:24.819Z,19.98
2017-12-19T21:47:51.049Z,19.99
2017-12-19T21:50:17.297Z,20.01
2017-12-19T21:52:43.467Z,20.04
2017-12-19T21:55:09.658Z,20.06
2017-12-19T21:57:35.892Z,20.05
2017-12-19T22:00:02.056Z,20.01
2017-12-19T22:02:28.242Z,20.00
2017-12-19T22:04:54.488Z,20.03
2017-12-19T22:07:20.679Z,20.04
2017-12-19T22:09:46.852Z,20.08
2017-12-19T22:12:13.869Z,20.12
2017-12-19T22:14:40.136Z,20.13
2017-12-19T22:19:39.351Z,20.11
2017-12-19T22:22:05.541Z,20.08
2017-12-19T22:24:31.740Z,20.09
2017-12-19T22:26:58.301Z,20.11
2017-12-19T22:29:24.487Z,20.13
2017-12-19T22:31:50.677Z,20.13
2017-12-19T22:34:17.856Z,20.12
2017-12-19T22:36:44.085Z,20.12
2017-12-19T22:39:10.282Z,20.12
2017-12-19T22:41:36.529Z,20.14
2017-12-19T22:44:02.724Z,20.12
2017-12-19T22:46:28.893Z,20.07
2017-12-19T22:48:55.475Z,20.10
2017-12-19T22:51:21.684Z,20.10
2017-12-19T22:53:47.883Z,20.10
2017-12-19T22:56:14.158Z,20.11
2017-12-19T22:58:40.363Z,20.12
2017-12-19T23:01:06.668Z,20.11
2017-12-19T23:03:32.910Z,20.16
2017-12-19T23:05:59.140Z,20.22
2017-12-19T23:08:25.332Z,20.21
2017-12-19T23:10:51.580Z,20.17
2017-12-19T23:13:17.760Z,20.17
2017-12-19T23:15:43.948Z,20.20
2017-12-19T23:18:10.537Z,20.21
2017-12-19T23:20:36.736Z,20.18
2017-12-19T23:23:02.964Z,20.17
2017-12-19T23:25:29.232Z,20.19
2017-12-19T23:27:55.414Z,20.23
2017-12-19T23:30:21.594Z,20.24
2017-12-19T23:32:47.832Z,20.24
2017-12-19T23:35:14.283Z,20.24
2017-12-19T23:37:40.451Z,20.23
2017-12-19T23:40:06.941Z,20.22
2017-12-19T23:42:33.137Z,20.20
2017-12-19T23:44:59.332Z,20.20
2017-12-19T23:47:25.932Z,20.21
2017-12-19T23:49:52.183Z,20.21
2017-12-19T23:52:18.368Z,20.18
2017-12-19T23:54:44.598Z,20.19
2017-12-19T23:57:10.784Z,20.18
2017-12-19T23:59:37.280Z,20.18
